sensor_id;sensor_type;location;lat;lon;timestamp;pressure;altitude;pressure_sealevel;temperature;humidity
75747;BME280;70632;52.232;21.038;2024-03-29T00:00:02;98480.09;;;10.96;59.80
75747;BME280;70632;52.232;21.038;2024-03-29T00:02:28;98490.28;;;10.86;59.35
75747;BME280;70632;52.232;21.038;2024-03-29T00:04:54;98485.91;;;10.85;59.98
75747;BME280;70632;52.232;21.038;2024-03-29T00:07:20;98502.66;;;10.88;60.40
75747;BME280;70632;52.232;21.038;2024-03-29T00:09:46;98507.59;;;10.85;60.43
75747;BME280;70632;52.232;21.038;2024-03-29T00:12:11;98513.00;;;10.77;61.47
75747;BME280;70632;52.232;21.038;2024-03-29T00:14:39;98524.03;;;10.75;61.46
75747;BME280;70632;52.232;21.038;2024-03-29T00:17:05;98523.34;;;10.65;62.56
75747;BME280;70632;52.232;21.038;2024-03-29T00:19:31;98532.97;;;10.59;63.34
75747;BME280;70632;52.232;21.038;2024-03-29T00:21:57;98533.66;;;10.53;62.97
75747;BME280;70632;52.232;21.038;2024-03-29T00:24:23;98545.69;;;10.59;64.27
75747;BME280;70632;52.232;21.038;2024-03-29T00:26:49;98551.44;;;10.56;65.13
75747;BME280;70632;52.232;21.038;2024-03-29T00:29:14;98552.28;;;10.48;64.35
75747;BME280;70632;52.232;21.038;2024-03-29T00:31:40;98557.03;;;10.46;65.22
75747;BME280;70632;52.232;21.038;2024-03-29T00:34:06;98548.72;;;10.47;65.23
75747;BME280;70632;52.232;21.038;2024-03-29T00:36:32;98557.34;;;10.43;65.09
75747;BME280;70632;52.232;21.038;2024-03-29T00:38:58;98565.47;;;10.43;65.86
75747;BME280;70632;52.232;21.038;2024-03-29T00:41:23;98570.75;;;10.44;66.00
75747;BME280;70632;52.232;21.038;2024-03-29T00:43:49;98582.09;;;10.40;65.65
75747;BME280;70632;52.232;21.038;2024-03-29T00:46:15;98582.09;;;10.40;66.63
75747;BME280;70632;52.232;21.038;2024-03-29T00:48:41;98584.78;;;10.40;67.65
75747;BME280;70632;52.232;21.038;2024-03-29T00:51:07;98593.59;;;10.34;66.30
75747;BME280;70632;52.232;21.038;2024-03-29T00:53:33;98600.38;;;10.38;65.81
75747;BME280;70632;52.232;21.038;2024-03-29T00:55:59;98605.41;;;10.33;65.91
75747;BME280;70632;52.232;21.038;2024-03-29T00:58:25;98610.16;;;10.31;65.29
75747;BME280;70632;52.232;21.038;2024-03-29T01:00:50;98607.44;;;10.31;66.12
75747;BME280;70632;52.232;21.038;2024-03-29T01:03:17;98622.28;;;10.26;66.15
75747;BME280;70632;52.232;21.038;2024-03-29T01:05:43;98631.94;;;10.29;66.33
75747;BME280;70632;52.232;21.038;2024-03-29T01:08:08;98630.56;;;10.25;66.63
75747;BME280;70632;52.232;21.038;2024-03-29T01:10:35;98637.50;;;10.19;67.86
75747;BME280;70632;52.232;21.038;2024-03-29T01:13:01;98642.94;;;10.19;68.05
75747;BME280;70632;52.232;21.038;2024-03-29T01:15:27;98648.00;;;10.22;68.65
75747;BME280;70632;52.232;21.038;2024-03-29T01:17:53;98648.13;;;10.13;66.39
75747;BME280;70632;52.232;21.038;2024-03-29T01:20:19;98655.75;;;10.09;69.26
75747;BME280;70632;52.232;21.038;2024-03-29T01:23:03;98660.63;;;10.05;69.61
75747;BME280;70632;52.232;21.038;2024-03-29T01:25:29;98667.22;;;10.03;70.48
75747;BME280;70632;52.232;21.038;2024-03-29T01:27:55;98678.00;;;9.95;70.68
75747;BME280;70632;52.232;21.038;2024-03-29T01:30:23;98690.16;;;9.91;72.46
75747;BME280;70632;52.232;21.038;2024-03-29T01:32:50;98686.88;;;9.79;72.74
75747;BME280;70632;52.232;21.038;2024-03-29T01:35:15;98688.22;;;9.75;74.11
75747;BME280;70632;52.232;21.038;2024-03-29T01:37:41;98690.56;;;9.78;74.54
75747;BME280;70632;52.232;21.038;2024-03-29T01:40:07;98705.97;;;9.77;73.82
75747;BME280;70632;52.232;21.038;2024-03-29T01:42:33;98703.59;;;9.74;73.47
75747;BME280;70632;52.232;21.038;2024-03-29T01:44:59;98707.38;;;9.63;74.73
75747;BME280;70632;52.232;21.038;2024-03-29T01:47:25;98713.34;;;9.67;74.12
75747;BME280;70632;52.232;21.038;2024-03-29T01:49:51;98720.34;;;9.78;73.59
75747;BME280;70632;52.232;21.038;2024-03-29T01:52:17;98720.88;;;9.81;71.58
75747;BME280;70632;52.232;21.038;2024-03-29T01:54:45;98720.59;;;9.84;69.50
75747;BME280;70632;52.232;21.038;2024-03-29T01:57:12;98725.38;;;9.91;68.19
75747;BME280;70632;52.232;21.038;2024-03-29T01:59:40;98730.13;;;9.97;67.65
75747;BME280;70632;52.232;21.038;2024-03-29T02:02:08;98738.78;;;10.00;68.43
75747;BME280;70632;52.232;21.038;2024-03-29T02:04:35;98724.72;;;9.97;65.26
75747;BME280;70632;52.232;21.038;2024-03-29T02:07:02;98737.97;;;10.08;63.74
75747;BME280;70632;52.232;21.038;2024-03-29T02:09:29;98748.16;;;10.14;64.66
75747;BME280;70632;52.232;21.038;2024-03-29T02:11:55;98739.88;;;10.16;64.20
75747;BME280;70632;52.232;21.038;2024-03-29T02:14:39;98751.56;;;10.16;64.64
75747;BME280;70632;52.232;21.038;2024-03-29T02:17:06;98762.94;;;10.20;64.28
75747;BME280;70632;52.232;21.038;2024-03-29T02:19:32;98757.38;;;10.21;63.31
75747;BME280;70632;52.232;21.038;2024-03-29T02:21:59;98757.53;;;10.20;64.12
75747;BME280;70632;52.232;21.038;2024-03-29T02:24:26;98760.75;;;10.23;63.72
75747;BME280;70632;52.232;21.038;2024-03-29T02:26:54;98765.16;;;10.24;63.41
75747;BME280;70632;52.232;21.038;2024-03-29T02:29:21;98768.56;;;10.26;63.21
75747;BME280;70632;52.232;21.038;2024-03-29T02:31:47;98778.09;;;10.31;63.55
75747;BME280;70632;52.232;21.038;2024-03-29T02:34:13;98778.09;;;10.31;63.05
75747;BME280;70632;52.232;21.038;2024-03-29T02:36:39;98793.16;;;10.33;61.68
75747;BME280;70632;52.232;21.038;2024-03-29T02:39:04;98794.47;;;10.29;62.50
75747;BME280;70632;52.232;21.038;2024-03-29T02:41:49;98795.38;;;10.30;62.57
75747;BME280;70632;52.232;21.038;2024-03-29T02:44:33;98810.44;;;10.32;62.17
75747;BME280;70632;52.232;21.038;2024-03-29T02:46:59;98812.47;;;10.30;62.16
75747;BME280;70632;52.232;21.038;2024-03-29T02:49:25;98820.44;;;10.32;61.46
75747;BME280;70632;52.232;21.038;2024-03-29T02:51:50;98817.53;;;10.33;60.31
75747;BME280;70632;52.232;21.038;2024-03-29T02:54:18;98831.44;;;10.30;61.10
75747;BME280;70632;52.232;21.038;2024-03-29T02:56:44;98836.00;;;10.30;62.01
75747;BME280;70632;52.232;21.038;2024-03-29T02:59:10;98843.41;;;10.27;61.41
75747;BME280;70632;52.232;21.038;2024-03-29T03:01:35;98848.75;;;10.19;60.90
75747;BME280;70632;52.232;21.038;2024-03-29T03:04:02;98857.03;;;10.18;62.01
75747;BME280;70632;52.232;21.038;2024-03-29T03:06:28;98847.38;;;10.15;62.00
75747;BME280;70632;52.232;21.038;2024-03-29T03:08:54;98867.03;;;10.17;62.04
75747;BME280;70632;52.232;21.038;2024-03-29T03:11:38;98852.47;;;10.18;61.91
75747;BME280;70632;52.232;21.038;2024-03-29T03:14:04;98872.19;;;10.11;60.94
75747;BME280;70632;52.232;21.038;2024-03-29T03:16:30;98875.38;;;10.06;61.41
75747;BME280;70632;52.232;21.038;2024-03-29T03:18:55;98890.78;;;10.05;61.72
75747;BME280;70632;52.232;21.038;2024-03-29T03:21:21;98880.09;;;10.04;61.48
75747;BME280;70632;52.232;21.038;2024-03-29T03:23:47;98888.09;;;10.05;62.18
75747;BME280;70632;52.232;21.038;2024-03-29T03:26:13;98890.94;;;10.04;61.91
75747;BME280;70632;52.232;21.038;2024-03-29T03:28:38;98897.38;;;10.03;61.62
75747;BME280;70632;52.232;21.038;2024-03-29T03:31:04;98905.31;;;10.04;61.62
75747;BME280;70632;52.232;21.038;2024-03-29T03:33:30;98907.94;;;9.96;62.04
75747;BME280;70632;52.232;21.038;2024-03-29T03:35:56;98896.28;;;9.96;61.31
75747;BME280;70632;52.232;21.038;2024-03-29T03:38:21;98910.50;;;9.98;61.39
75747;BME280;70632;52.232;21.038;2024-03-29T03:40:47;98911.53;;;9.97;61.29
75747;BME280;70632;52.232;21.038;2024-03-29T03:43:13;98930.78;;;9.94;61.68
75747;BME280;70632;52.232;21.038;2024-03-29T03:45:39;98933.97;;;9.89;61.37
75747;BME280;70632;52.232;21.038;2024-03-29T03:48:07;98940.22;;;9.90;62.22
75747;BME280;70632;52.232;21.038;2024-03-29T03:50:34;98942.09;;;9.89;61.65
75747;BME280;70632;52.232;21.038;2024-03-29T03:53:00;98942.22;;;9.87;61.90
75747;BME280;70632;52.232;21.038;2024-03-29T03:55:26;98967.59;;;9.86;61.65
75747;BME280;70632;52.232;21.038;2024-03-29T03:57:53;98945.69;;;9.80;61.56
75747;BME280;70632;52.232;21.038;2024-03-29T04:00:20;98952.28;;;9.77;61.97
75747;BME280;70632;52.232;21.038;2024-03-29T04:02:49;98956.00;;;9.76;62.00
75747;BME280;70632;52.232;21.038;2024-03-29T04:05:19;98962.25;;;9.77;62.05
75747;BME280;70632;52.232;21.038;2024-03-29T04:07:45;98963.72;;;9.71;61.79
75747;BME280;70632;52.232;21.038;2024-03-29T04:10:11;98975.97;;;9.65;61.92
75747;BME280;70632;52.232;21.038;2024-03-29T04:12:40;98968.31;;;9.61;61.92
75747;BME280;70632;52.232;21.038;2024-03-29T04:15:06;98968.31;;;9.61;62.72
75747;BME280;70632;52.232;21.038;2024-03-29T04:17:32;98974.34;;;9.55;62.46
75747;BME280;70632;52.232;21.038;2024-03-29T04:22:43;98977.38;;;9.52;62.25
75747;BME280;70632;52.232;21.038;2024-03-29T04:25:11;98980.06;;;9.52;62.04
75747;BME280;70632;52.232;21.038;2024-03-29T04:27:37;98981.06;;;9.51;61.95
75747;BME280;70632;52.232;21.038;2024-03-29T04:30:03;98984.09;;;9.48;62.09
75747;BME280;70632;52.232;21.038;2024-03-29T04:32:29;99009.41;;;9.46;62.22
75747;BME280;70632;52.232;21.038;2024-03-29T04:34:55;98997.19;;;9.42;62.60
75747;BME280;70632;52.232;21.038;2024-03-29T04:37:20;99008.72;;;9.44;62.00
75747;BME280;70632;52.232;21.038;2024-03-29T04:39:46;99010.84;;;9.41;61.71
75747;BME280;70632;52.232;21.038;2024-03-29T04:42:31;99015.41;;;9.40;61.39
75747;BME280;70632;52.232;21.038;2024-03-29T04:44:57;99004.75;;;9.39;62.46
75747;BME280;70632;52.232;21.038;2024-03-29T04:47:23;99011.88;;;9.40;62.06
75747;BME280;70632;52.232;21.038;2024-03-29T04:49:48;99018.59;;;9.36;62.11
75747;BME280;70632;52.232;21.038;2024-03-29T04:52:33;99016.84;;;9.35;62.32
75747;BME280;70632;52.232;21.038;2024-03-29T04:54:59;99025.44;;;9.30;62.20
75747;BME280;70632;52.232;21.038;2024-03-29T04:57:24;99036.69;;;9.25;62.38
75747;BME280;70632;52.232;21.038;2024-03-29T04:59:50;99048.94;;;9.20;63.21
75747;BME280;70632;52.232;21.038;2024-03-29T05:05:01;99053.97;;;9.15;63.57
75747;BME280;70632;52.232;21.038;2024-03-29T05:07:26;99051.97;;;9.17;63.22
75747;BME280;70632;52.232;21.038;2024-03-29T05:09:52;99067.47;;;9.15;63.51
75747;BME280;70632;52.232;21.038;2024-03-29T05:12:18;99061.38;;;9.13;63.04
75747;BME280;70632;52.232;21.038;2024-03-29T05:14:44;99066.31;;;9.17;63.24
75747;BME280;70632;52.232;21.038;2024-03-29T05:17:09;99063.63;;;9.17;62.65
75747;BME280;70632;52.232;21.038;2024-03-29T05:19:35;99056.34;;;9.18;62.56
75747;BME280;70632;52.232;21.038;2024-03-29T05:22:01;99064.91;;;9.23;62.63
75747;BME280;70632;52.232;21.038;2024-03-29T05:24:27;99072.13;;;9.22;62.65
75747;BME280;70632;52.232;21.038;2024-03-29T05:26:52;99072.84;;;9.24;62.51
75747;BME280;70632;52.232;21.038;2024-03-29T05:29:18;99072.69;;;9.26;61.84
75747;BME280;70632;52.232;21.038;2024-03-29T05:31:44;99069.44;;;9.22;62.06
75747;BME280;70632;52.232;21.038;2024-03-29T05:34:10;99068.31;;;9.25;62.14
75747;BME280;70632;52.232;21.038;2024-03-29T05:36:35;99070.59;;;9.20;62.59
75747;BME280;70632;52.232;21.038;2024-03-29T05:39:02;99076.41;;;9.25;61.81
75747;BME280;70632;52.232;21.038;2024-03-29T05:41:29;99073.13;;;9.31;62.32
75747;BME280;70632;52.232;21.038;2024-03-29T05:43:56;99084.94;;;9.30;61.81
75747;BME280;70632;52.232;21.038;2024-03-29T05:46:21;99069.72;;;9.29;61.64
75747;BME280;70632;52.232;21.038;2024-03-29T05:48:47;99082.66;;;9.35;61.73
75747;BME280;70632;52.232;21.038;2024-03-29T05:51:32;99085.75;;;9.40;61.43
75747;BME280;70632;52.232;21.038;2024-03-29T05:54:00;99087.75;;;9.38;61.14
75747;BME280;70632;52.232;21.038;2024-03-29T05:56:25;99076.06;;;9.48;61.02
75747;BME280;70632;52.232;21.038;2024-03-29T05:58:52;99074.06;;;9.50;60.77
75747;BME280;70632;52.232;21.038;2024-03-29T06:01:17;99092.69;;;9.53;60.67
75747;BME280;70632;52.232;21.038;2024-03-29T06:03:43;99080.88;;;9.54;60.72
75747;BME280;70632;52.232;21.038;2024-03-29T06:06:12;99078.88;;;9.56;59.85
75747;BME280;70632;52.232;21.038;2024-03-29T06:08:44;99075.72;;;9.60;60.91
75747;BME280;70632;52.232;21.038;2024-03-29T06:11:09;99079.97;;;9.63;60.30
75747;BME280;70632;52.232;21.038;2024-03-29T06:13:35;99079.69;;;9.66;59.65
75747;BME280;70632;52.232;21.038;2024-03-29T06:16:26;99082.78;;;9.71;59.62
75747;BME280;70632;52.232;21.038;2024-03-29T06:19:11;99083.81;;;9.70;59.95
75747;BME280;70632;52.232;21.038;2024-03-29T06:21:36;99089.94;;;9.72;59.62
75747;BME280;70632;52.232;21.038;2024-03-29T06:24:07;99094.47;;;9.72;59.97
75747;BME280;70632;52.232;21.038;2024-03-29T06:26:34;99105.84;;;9.75;59.94
75747;BME280;70632;52.232;21.038;2024-03-29T06:29:00;99113.38;;;9.81;59.71
75747;BME280;70632;52.232;21.038;2024-03-29T06:31:26;99121.81;;;9.78;59.70
75747;BME280;70632;52.232;21.038;2024-03-29T06:33:53;99126.06;;;9.81;59.00
75747;BME280;70632;52.232;21.038;2024-03-29T06:39:21;99122.31;;;9.92;58.50
75747;BME280;70632;52.232;21.038;2024-03-29T06:41:47;99125.84;;;9.92;58.71
75747;BME280;70632;52.232;21.038;2024-03-29T06:44:13;99129.53;;;10.01;58.72
75747;BME280;70632;52.232;21.038;2024-03-29T06:46:38;99131.97;;;9.94;58.55
75747;BME280;70632;52.232;21.038;2024-03-29T06:49:04;99151.03;;;10.02;58.17
75747;BME280;70632;52.232;21.038;2024-03-29T06:54:15;99160.72;;;10.05;57.94
75747;BME280;70632;52.232;21.038;2024-03-29T06:56:40;99163.00;;;10.10;57.89
75747;BME280;70632;52.232;21.038;2024-03-29T06:59:07;99166.78;;;10.17;57.88
75747;BME280;70632;52.232;21.038;2024-03-29T07:01:33;99164.50;;;10.22;57.88
75747;BME280;70632;52.232;21.038;2024-03-29T07:03:59;99176.31;;;10.31;57.57
75747;BME280;70632;52.232;21.038;2024-03-29T07:06:25;99170.88;;;10.31;56.83
75747;BME280;70632;52.232;21.038;2024-03-29T07:08:51;99169.03;;;10.31;57.12
75747;BME280;70632;52.232;21.038;2024-03-29T07:11:16;99164.25;;;10.43;57.03
75747;BME280;70632;52.232;21.038;2024-03-29T07:13:42;99172.38;;;10.43;56.30
75747;BME280;70632;52.232;21.038;2024-03-29T07:16:08;99179.72;;;10.33;55.84
75747;BME280;70632;52.232;21.038;2024-03-29T07:18:34;99174.63;;;10.30;57.06
75747;BME280;70632;52.232;21.038;2024-03-29T07:20:59;99165.06;;;10.25;56.10
75747;BME280;70632;52.232;21.038;2024-03-29T07:23:25;99153.19;;;10.26;55.89
75747;BME280;70632;52.232;21.038;2024-03-29T07:25:59;99170.03;;;10.30;55.47
75747;BME280;70632;52.232;21.038;2024-03-29T07:28:25;99167.72;;;10.35;55.83
75747;BME280;70632;52.232;21.038;2024-03-29T07:30:51;99178.66;;;10.43;54.95
75747;BME280;70632;52.232;21.038;2024-03-29T07:33:19;99164.50;;;10.50;55.37
75747;BME280;70632;52.232;21.038;2024-03-29T07:35:47;99171.09;;;10.47;55.34
75747;BME280;70632;52.232;21.038;2024-03-29T07:38:16;99153.91;;;10.56;54.72
75747;BME280;70632;52.232;21.038;2024-03-29T07:40:43;99152.13;;;10.65;54.75
75747;BME280;70632;52.232;21.038;2024-03-29T07:43:09;99166.16;;;10.78;55.08
75747;BME280;70632;52.232;21.038;2024-03-29T07:45:35;99175.06;;;10.88;54.81
75747;BME280;70632;52.232;21.038;2024-03-29T07:48:01;99178.47;;;10.91;54.05
75747;BME280;70632;52.232;21.038;2024-03-29T07:50:27;99169.63;;;10.88;53.83
75747;BME280;70632;52.232;21.038;2024-03-29T07:52:53;99167.00;;;10.97;52.88
75747;BME280;70632;52.232;21.038;2024-03-29T07:55:18;99171.44;;;10.98;53.11
75747;BME280;70632;52.232;21.038;2024-03-29T07:57:44;99173.47;;;11.14;53.80
75747;BME280;70632;52.232;21.038;2024-03-29T08:00:12;99184.75;;;11.27;51.88
75747;BME280;70632;52.232;21.038;2024-03-29T08:02:41;99170.19;;;11.28;52.00
75747;BME280;70632;52.232;21.038;2024-03-29T08:05:07;99210.63;;;11.39;51.94
75747;BME280;70632;52.232;21.038;2024-03-29T08:07:33;99186.97;;;11.50;51.94
75747;BME280;70632;52.232;21.038;2024-03-29T08:10:01;99202.13;;;11.60;50.74
75747;BME280;70632;52.232;21.038;2024-03-29T08:12:46;99199.88;;;11.74;50.48
75747;BME280;70632;52.232;21.038;2024-03-29T08:15:11;99241.50;;;12.00;50.11
75747;BME280;70632;52.232;21.038;2024-03-29T08:17:37;99204.16;;;12.02;48.35
75747;BME280;70632;52.232;21.038;2024-03-29T08:20:04;99218.66;;;12.19;47.82
75747;BME280;70632;52.232;21.038;2024-03-29T08:22:30;99212.91;;;12.22;46.73
75747;BME280;70632;52.232;21.038;2024-03-29T08:24:59;99204.19;;;12.45;47.05
75747;BME280;70632;52.232;21.038;2024-03-29T08:27:27;99215.59;;;12.57;46.37
75747;BME280;70632;52.232;21.038;2024-03-29T08:29:52;99206.72;;;13.14;45.17
75747;BME280;70632;52.232;21.038;2024-03-29T08:32:18;99218.72;;;13.45;43.66
75747;BME280;70632;52.232;21.038;2024-03-29T08:34:44;99199.19;;;14.14;42.59
75747;BME280;70632;52.232;21.038;2024-03-29T08:37:28;99198.78;;;15.04;41.14
75747;BME280;70632;52.232;21.038;2024-03-29T08:39:56;99198.72;;;15.97;38.96
75747;BME280;70632;52.232;21.038;2024-03-29T08:42:21;99209.28;;;15.62;38.09
75747;BME280;70632;52.232;21.038;2024-03-29T08:44:47;99226.19;;;16.18;37.45
75747;BME280;70632;52.232;21.038;2024-03-29T08:47:13;99208.66;;;17.08;35.72
75747;BME280;70632;52.232;21.038;2024-03-29T08:49:39;99208.31;;;17.18;35.46
75747;BME280;70632;52.232;21.038;2024-03-29T08:52:05;99224.38;;;17.43;34.44
75747;BME280;70632;52.232;21.038;2024-03-29T08:54:31;99230.63;;;18.29;33.69
75747;BME280;70632;52.232;21.038;2024-03-29T08:56:57;99219.31;;;18.46;32.66
75747;BME280;70632;52.232;21.038;2024-03-29T08:59:24;99235.38;;;17.71;33.77
75747;BME280;70632;52.232;21.038;2024-03-29T09:01:50;99260.06;;;18.21;32.71
75747;BME280;70632;52.232;21.038;2024-03-29T09:04:35;99227.53;;;18.11;33.20
75747;BME280;70632;52.232;21.038;2024-03-29T09:07:19;99246.75;;;19.42;30.80
75747;BME280;70632;52.232;21.038;2024-03-29T09:09:49;99222.47;;;19.99;30.32
75747;BME280;70632;52.232;21.038;2024-03-29T09:12:15;99244.72;;;19.84;29.93
75747;BME280;70632;52.232;21.038;2024-03-29T09:14:40;99222.00;;;20.36;29.10
75747;BME280;70632;52.232;21.038;2024-03-29T09:17:07;99228.44;;;20.95;28.07
75747;BME280;70632;52.232;21.038;2024-03-29T09:19:33;99242.16;;;20.09;29.01
75747;BME280;70632;52.232;21.038;2024-03-29T09:21:59;99240.84;;;20.45;28.96
75747;BME280;70632;52.232;21.038;2024-03-29T09:24:25;99268.84;;;21.07;28.74
75747;BME280;70632;52.232;21.038;2024-03-29T09:26:53;99252.94;;;21.09;28.55
75747;BME280;70632;52.232;21.038;2024-03-29T09:29:37;99256.41;;;21.75;27.39
75747;BME280;70632;52.232;21.038;2024-03-29T09:32:03;99249.41;;;21.47;27.59
75747;BME280;70632;52.232;21.038;2024-03-29T09:34:29;99235.09;;;21.19;27.59
75747;BME280;70632;52.232;21.038;2024-03-29T09:36:56;99250.38;;;21.60;27.19
75747;BME280;70632;52.232;21.038;2024-03-29T09:39:23;99252.53;;;22.08;26.11
75747;BME280;70632;52.232;21.038;2024-03-29T09:41:49;99250.66;;;22.34;25.85
75747;BME280;70632;52.232;21.038;2024-03-29T09:44:15;99263.31;;;23.03;24.74
75747;BME280;70632;52.232;21.038;2024-03-29T09:46:43;99233.97;;;23.02;24.59
75747;BME280;70632;52.232;21.038;2024-03-29T09:49:09;99230.44;;;23.56;24.33
75747;BME280;70632;52.232;21.038;2024-03-29T09:51:39;99227.66;;;22.95;23.86
75747;BME280;70632;52.232;21.038;2024-03-29T09:54:23;99228.00;;;23.17;24.34
75747;BME280;70632;52.232;21.038;2024-03-29T09:56:50;99240.59;;;22.39;24.44
75747;BME280;70632;52.232;21.038;2024-03-29T09:59:15;99249.53;;;22.78;24.60
75747;BME280;70632;52.232;21.038;2024-03-29T10:01:42;99248.47;;;23.77;23.86
75747;BME280;70632;52.232;21.038;2024-03-29T10:04:08;99246.00;;;23.68;23.95
75747;BME280;70632;52.232;21.038;2024-03-29T10:06:34;99248.03;;;24.15;23.11
75747;BME280;70632;52.232;21.038;2024-03-29T10:09:01;99260.34;;;24.31;22.38
75747;BME280;70632;52.232;21.038;2024-03-29T10:11:27;99243.13;;;24.29;22.74
75747;BME280;70632;52.232;21.038;2024-03-29T10:13:53;99264.31;;;23.39;23.67
75747;BME280;70632;52.232;21.038;2024-03-29T10:16:20;99240.69;;;23.55;23.91
75747;BME280;70632;52.232;21.038;2024-03-29T10:18:50;99229.34;;;24.81;22.41
75747;BME280;70632;52.232;21.038;2024-03-29T10:21:16;99239.28;;;24.54;22.83
75747;BME280;70632;52.232;21.038;2024-03-29T10:23:42;99239.03;;;24.67;22.76
75747;BME280;70632;52.232;21.038;2024-03-29T10:26:08;99253.22;;;24.00;22.75
75747;BME280;70632;52.232;21.038;2024-03-29T10:28:35;99238.97;;;23.42;23.54
75747;BME280;70632;52.232;21.038;2024-03-29T10:31:20;99241.03;;;23.77;23.11
75747;BME280;70632;52.232;21.038;2024-03-29T10:33:46;99259.34;;;23.90;23.16
75747;BME280;70632;52.232;21.038;2024-03-29T10:36:13;99263.63;;;22.52;24.30
75747;BME280;70632;52.232;21.038;2024-03-29T10:38:40;99267.56;;;22.62;23.98
75747;BME280;70632;52.232;21.038;2024-03-29T10:41:07;99252.59;;;22.70;23.92
75747;BME280;70632;52.232;21.038;2024-03-29T10:43:34;99247.53;;;23.95;22.49
75747;BME280;70632;52.232;21.038;2024-03-29T10:46:00;99244.22;;;23.32;22.83
75747;BME280;70632;52.232;21.038;2024-03-29T10:48:27;99266.09;;;22.78;23.11
75747;BME280;70632;52.232;21.038;2024-03-29T10:50:58;99231.72;;;23.11;22.97
75747;BME280;70632;52.232;21.038;2024-03-29T10:53:24;99233.97;;;23.02;23.13
75747;BME280;70632;52.232;21.038;2024-03-29T10:55:54;99240.56;;;22.83;23.40
75747;BME280;70632;52.232;21.038;2024-03-29T10:58:23;99241.47;;;22.77;23.51
75747;BME280;70632;52.232;21.038;2024-03-29T11:00:53;99243.69;;;23.54;22.64
75747;BME280;70632;52.232;21.038;2024-03-29T11:03:41;99253.66;;;23.85;21.13
75747;BME280;70632;52.232;21.038;2024-03-29T11:06:12;99241.06;;;24.48;20.87
75747;BME280;70632;52.232;21.038;2024-03-29T11:08:40;99242.56;;;23.85;20.87
75747;BME280;70632;52.232;21.038;2024-03-29T11:11:12;99239.59;;;23.56;21.02
75747;BME280;70632;52.232;21.038;2024-03-29T11:16:05;99269.66;;;23.53;21.02
75747;BME280;70632;52.232;21.038;2024-03-29T11:18:31;99236.47;;;23.95;21.02
75747;BME280;70632;52.232;21.038;2024-03-29T11:20:58;99264.75;;;23.55;21.54
75747;BME280;70632;52.232;21.038;2024-03-29T11:23:26;99249.63;;;23.08;22.21
75747;BME280;70632;52.232;21.038;2024-03-29T11:25:54;99241.78;;;24.08;21.58
75747;BME280;70632;52.232;21.038;2024-03-29T11:28:30;99233.78;;;25.63;20.40
75747;BME280;70632;52.232;21.038;2024-03-29T11:33:48;99222.44;;;26.66;18.65
75747;BME280;70632;52.232;21.038;2024-03-29T11:36:18;99225.34;;;26.04;18.58
75747;BME280;70632;52.232;21.038;2024-03-29T11:41:34;99255.34;;;25.44;19.40
75747;BME280;70632;52.232;21.038;2024-03-29T11:43:59;99247.44;;;24.48;20.06
75747;BME280;70632;52.232;21.038;2024-03-29T11:46:26;99236.63;;;24.59;19.99
75747;BME280;70632;52.232;21.038;2024-03-29T11:48:52;99229.63;;;24.68;19.40
75747;BME280;70632;52.232;21.038;2024-03-29T11:51:21;99228.91;;;24.14;19.66
75747;BME280;70632;52.232;21.038;2024-03-29T11:56:32;99240.06;;;23.83;20.71
75747;BME280;70632;52.232;21.038;2024-03-29T11:58:58;99248.41;;;24.07;20.72
75747;BME280;70632;52.232;21.038;2024-03-29T12:01:26;99238.53;;;22.90;21.73
75747;BME280;70632;52.232;21.038;2024-03-29T12:03:53;99232.19;;;22.89;21.31
75747;BME280;70632;52.232;21.038;2024-03-29T12:06:38;99220.66;;;22.37;22.29
75747;BME280;70632;52.232;21.038;2024-03-29T12:09:04;99243.28;;;22.27;22.57
75747;BME280;70632;52.232;21.038;2024-03-29T12:11:31;99249.78;;;21.51;23.61
75747;BME280;70632;52.232;21.038;2024-03-29T12:13:57;99253.75;;;20.72;23.51
75747;BME280;70632;52.232;21.038;2024-03-29T12:16:24;99241.50;;;20.41;24.87
75747;BME280;70632;52.232;21.038;2024-03-29T12:18:50;99277.94;;;20.03;26.29
75747;BME280;70632;52.232;21.038;2024-03-29T12:21:15;99251.00;;;19.58;27.19
75747;BME280;70632;52.232;21.038;2024-03-29T12:23:47;99255.25;;;19.61;27.53
75747;BME280;70632;52.232;21.038;2024-03-29T12:26:14;99273.06;;;19.78;27.43
75747;BME280;70632;52.232;21.038;2024-03-29T12:28:40;99253.13;;;19.69;26.45
75747;BME280;70632;52.232;21.038;2024-03-29T12:31:09;99269.94;;;19.20;26.68
75747;BME280;70632;52.232;21.038;2024-03-29T12:33:35;99275.56;;;18.63;27.91
75747;BME280;70632;52.232;21.038;2024-03-29T12:36:00;99277.38;;;18.84;27.87
75747;BME280;70632;52.232;21.038;2024-03-29T12:38:26;99247.69;;;19.01;27.64
75747;BME280;70632;52.232;21.038;2024-03-29T12:40:52;99258.03;;;18.99;28.31
75747;BME280;70632;52.232;21.038;2024-03-29T12:43:22;99263.47;;;18.86;28.75
75747;BME280;70632;52.232;21.038;2024-03-29T12:45:49;99274.25;;;18.59;28.75
75747;BME280;70632;52.232;21.038;2024-03-29T12:48:20;99295.38;;;18.59;29.48
75747;BME280;70632;52.232;21.038;2024-03-29T12:50:47;99273.28;;;18.39;29.23
75747;BME280;70632;52.232;21.038;2024-03-29T12:53:15;99284.28;;;18.39;29.80
75747;BME280;70632;52.232;21.038;2024-03-29T12:55:43;99268.22;;;18.36;30.06
75747;BME280;70632;52.232;21.038;2024-03-29T12:58:16;99291.47;;;18.40;29.75
75747;BME280;70632;52.232;21.038;2024-03-29T13:00:43;99284.28;;;18.39;29.65
75747;BME280;70632;52.232;21.038;2024-03-29T13:03:09;99281.53;;;18.39;29.38
75747;BME280;70632;52.232;21.038;2024-03-29T13:05:36;99267.66;;;18.19;29.21
75747;BME280;70632;52.232;21.038;2024-03-29T13:08:07;99273.31;;;18.45;28.39
75747;BME280;70632;52.232;21.038;2024-03-29T13:10:34;99274.09;;;18.33;29.00
75747;BME280;70632;52.232;21.038;2024-03-29T13:13:00;99269.94;;;18.43;29.18
75747;BME280;70632;52.232;21.038;2024-03-29T13:15:27;99259.50;;;18.25;29.23